AXM6491 WBKS-WBKK
Flight info
| Callsign | AXM6491 |
|---|---|
| Flight time | 0h 29m |
| Altitude | 14000 |
| Route | AKMAR1B AKMAR A341 TOMUD |
| Aircraft | A320/M-SDE3FGHIRWY/LB1 |
Departure
| Time | 2026-05-07 18:44 |
|---|---|
| Airport | Sandakan Airport (WBKS) |
Arrival
| Time | 2026-05-07 19:14 |
|---|---|
| Airport | Kota Kinabalu International Airport (WBKK) |
| Time | Latitude | Longitude | Altitude | Speed | Heading |
|---|---|---|---|---|---|
| 2026-05-07 18:39 | 5.89967 | 118.06121 | 41 ft | 14 kts | 349° |
| 2026-05-07 18:39 | 5.90064 | 118.06104 | 41 ft | 15 kts | 350° |
| 2026-05-07 18:39 | 5.90137 | 118.06068 | 41 ft | 11 kts | 289° |
| 2026-05-07 18:40 | 5.90132 | 118.05982 | 43 ft | 11 kts | 258° |
| 2026-05-07 18:40 | 5.90119 | 118.05916 | 45 ft | 8 kts | 259° |
| 2026-05-07 18:40 | 5.90107 | 118.05850 | 46 ft | 12 kts | 260° |
| 2026-05-07 18:40 | 5.90091 | 118.05753 | 46 ft | 16 kts | 260° |
| 2026-05-07 18:41 | 5.90070 | 118.05631 | 46 ft | 19 kts | 261° |
| 2026-05-07 18:41 | 5.90048 | 118.05492 | 50 ft | 21 kts | 261° |
| 2026-05-07 18:41 | 5.90023 | 118.05345 | 50 ft | 22 kts | 260° |
| 2026-05-07 18:41 | 5.89997 | 118.05190 | 52 ft | 23 kts | 261° |
| 2026-05-07 18:42 | 5.89977 | 118.05092 | 51 ft | 16 kts | 237° |
| 2026-05-07 18:42 | 5.89970 | 118.05029 | 52 ft | 10 kts | 353° |
| 2026-05-07 18:42 | 5.89980 | 118.05076 | 50 ft | 7 kts | 103° |
| 2026-05-07 18:42 | 5.89983 | 118.05103 | 52 ft | 0 kts | 77° |
| 2026-05-07 18:44 | 5.90008 | 118.05251 | 52 ft | 58 kts | 81° |
| 2026-05-07 18:44 | 5.90112 | 118.05886 | 46 ft | 123 kts | 80° |
| 2026-05-07 18:44 | 5.90281 | 118.06907 | 116 ft | 165 kts | 81° |
| 2026-05-07 18:44 | 5.90466 | 118.07981 | 906 ft | 154 kts | 79° |
| 2026-05-07 18:45 | 5.90671 | 118.09054 | 1470 ft | 162 kts | 75° |
| 2026-05-07 18:45 | 5.91341 | 118.10016 | 1746 ft | 184 kts | 31° |
| 2026-05-07 18:45 | 5.92636 | 118.10288 | 1985 ft | 205 kts | 349° |
| 2026-05-07 18:45 | 5.93882 | 118.09545 | 2240 ft | 224 kts | 309° |
| 2026-05-07 18:46 | 5.94780 | 118.08160 | 2534 ft | 249 kts | 299° |
| 2026-05-07 18:46 | 5.95612 | 118.06555 | 3068 ft | 267 kts | 296° |
| 2026-05-07 18:46 | 5.96433 | 118.04861 | 3881 ft | 272 kts | 296° |
| 2026-05-07 18:46 | 5.97277 | 118.03118 | 4746 ft | 276 kts | 296° |
| 2026-05-07 18:47 | 5.98124 | 118.01405 | 5602 ft | 279 kts | 297° |
| 2026-05-07 18:47 | 5.99017 | 117.99634 | 6435 ft | 283 kts | 297° |
| 2026-05-07 18:47 | 5.99908 | 117.97887 | 7262 ft | 286 kts | 297° |
| 2026-05-07 18:47 | 6.00831 | 117.96101 | 8049 ft | 290 kts | 297° |
| 2026-05-07 18:48 | 6.01729 | 117.94274 | 8784 ft | 294 kts | 290° |
| 2026-05-07 18:48 | 6.02184 | 117.92262 | 9485 ft | 299 kts | 273° |
| 2026-05-07 18:48 | 6.02011 | 117.90150 | 10206 ft | 302 kts | 255° |
| 2026-05-07 18:48 | 6.01240 | 117.88178 | 10790 ft | 311 kts | 244° |
| 2026-05-07 18:49 | 6.00272 | 117.86177 | 10948 ft | 334 kts | 243° |
| 2026-05-07 18:49 | 5.99220 | 117.84017 | 11108 ft | 355 kts | 243° |
| 2026-05-07 18:49 | 5.98118 | 117.81757 | 11576 ft | 364 kts | 243° |
| 2026-05-07 18:49 | 5.96996 | 117.79449 | 12143 ft | 370 kts | 244° |
| 2026-05-07 18:50 | 5.95852 | 117.77083 | 12747 ft | 374 kts | 244° |
| 2026-05-07 18:50 | 5.94724 | 117.74753 | 13347 ft | 378 kts | 244° |
| 2026-05-07 18:50 | 5.93569 | 117.72371 | 13715 ft | 381 kts | 244° |
| 2026-05-07 18:50 | 5.92409 | 117.69978 | 13804 ft | 381 kts | 244° |
| 2026-05-07 18:51 | 5.91295 | 117.67512 | 13834 ft | 397 kts | 250° |
| 2026-05-07 18:51 | 5.90569 | 117.64807 | 13833 ft | 404 kts | 261° |
| 2026-05-07 18:51 | 5.90366 | 117.61991 | 13834 ft | 405 kts | 270° |
| 2026-05-07 18:51 | 5.90359 | 117.59160 | 13832 ft | 406 kts | 270° |
| 2026-05-07 18:52 | 5.90359 | 117.56329 | 13832 ft | 406 kts | 270° |
| 2026-05-07 18:52 | 5.90365 | 117.53458 | 13834 ft | 419 kts | 270° |
| 2026-05-07 18:52 | 5.90375 | 117.50482 | 13824 ft | 430 kts | 270° |
| 2026-05-07 18:52 | 5.90384 | 117.47467 | 13834 ft | 433 kts | 270° |
| 2026-05-07 18:53 | 5.90394 | 117.44437 | 13836 ft | 433 kts | 270° |
| 2026-05-07 18:53 | 5.90404 | 117.41412 | 13832 ft | 433 kts | 270° |
| 2026-05-07 18:53 | 5.90405 | 117.38382 | 13833 ft | 433 kts | 270° |
| 2026-05-07 18:53 | 5.90401 | 117.35356 | 13836 ft | 434 kts | 270° |
| 2026-05-07 18:54 | 5.90394 | 117.32328 | 13824 ft | 433 kts | 270° |
| 2026-05-07 18:54 | 5.90385 | 117.29303 | 13833 ft | 433 kts | 270° |
| 2026-05-07 18:54 | 5.90378 | 117.26278 | 13818 ft | 433 kts | 270° |
| 2026-05-07 18:54 | 5.90371 | 117.23255 | 13833 ft | 433 kts | 270° |
| 2026-05-07 18:55 | 5.90367 | 117.20225 | 13832 ft | 433 kts | 270° |
| 2026-05-07 18:55 | 5.90365 | 117.17199 | 13832 ft | 433 kts | 270° |
| 2026-05-07 18:55 | 5.90365 | 117.14170 | 13818 ft | 433 kts | 270° |
| 2026-05-07 18:55 | 5.90366 | 117.11144 | 13832 ft | 433 kts | 270° |
| 2026-05-07 18:56 | 5.90367 | 117.08116 | 13824 ft | 433 kts | 270° |
| 2026-05-07 18:56 | 5.90365 | 117.05092 | 13822 ft | 433 kts | 270° |
| 2026-05-07 18:56 | 5.90350 | 117.02064 | 13813 ft | 433 kts | 270° |
| 2026-05-07 18:56 | 5.90315 | 116.99040 | 13816 ft | 433 kts | 269° |
| 2026-05-07 18:57 | 5.90267 | 116.96010 | 13825 ft | 433 kts | 269° |
| 2026-05-07 18:57 | 5.90216 | 116.92983 | 13823 ft | 433 kts | 269° |
| 2026-05-07 18:57 | 5.90165 | 116.89956 | 13817 ft | 433 kts | 269° |
| 2026-05-07 18:57 | 5.90115 | 116.86934 | 13821 ft | 433 kts | 269° |
| 2026-05-07 18:58 | 5.90068 | 116.83904 | 13826 ft | 433 kts | 269° |
| 2026-05-07 18:58 | 5.90026 | 116.80880 | 13818 ft | 433 kts | 269° |
| 2026-05-07 18:58 | 5.89987 | 116.77854 | 13811 ft | 433 kts | 269° |
| 2026-05-07 18:58 | 5.89949 | 116.74828 | 13818 ft | 433 kts | 269° |
| 2026-05-07 18:59 | 5.89911 | 116.71801 | 13806 ft | 433 kts | 269° |
| 2026-05-07 18:59 | 5.89873 | 116.68774 | 13805 ft | 434 kts | 270° |
| 2026-05-07 18:59 | 5.89855 | 116.65788 | 13810 ft | 434 kts | 270° |
| 2026-05-07 18:59 | 5.89856 | 116.62757 | 13819 ft | 433 kts | 270° |
| 2026-05-07 19:00 | 5.89866 | 116.59824 | 13805 ft | 402 kts | 270° |
| 2026-05-07 19:00 | 5.89877 | 116.57093 | 13602 ft | 384 kts | 270° |
| 2026-05-07 19:00 | 5.89884 | 116.54423 | 13351 ft | 380 kts | 270° |
| 2026-05-07 19:00 | 5.89886 | 116.51776 | 13100 ft | 380 kts | 270° |
| 2026-05-07 19:01 | 5.89883 | 116.49123 | 12627 ft | 379 kts | 270° |
| 2026-05-07 19:01 | 5.89881 | 116.46483 | 12040 ft | 377 kts | 270° |
| 2026-05-07 19:01 | 5.89880 | 116.43857 | 11466 ft | 375 kts | 270° |
| 2026-05-07 19:01 | 5.90115 | 116.41228 | 10867 ft | 373 kts | 285° |
| 2026-05-07 19:02 | 5.91162 | 116.38890 | 10464 ft | 363 kts | 305° |
| 2026-05-07 19:02 | 5.92849 | 116.37089 | 10333 ft | 347 kts | 323° |
| 2026-05-07 19:02 | 5.94911 | 116.35949 | 10203 ft | 332 kts | 341° |
| 2026-05-07 19:02 | 5.97103 | 116.35372 | 10082 ft | 320 kts | 347° |
| 2026-05-07 19:03 | 5.99233 | 116.34873 | 9942 ft | 308 kts | 347° |
| 2026-05-07 19:03 | 6.01288 | 116.34393 | 9815 ft | 300 kts | 347° |
| 2026-05-07 19:03 | 6.03315 | 116.33918 | 9523 ft | 298 kts | 347° |
| 2026-05-07 19:03 | 6.05335 | 116.33445 | 9125 ft | 298 kts | 347° |
| 2026-05-07 19:04 | 6.07357 | 116.32972 | 8708 ft | 298 kts | 347° |
| 2026-05-07 19:04 | 6.09369 | 116.32501 | 8350 ft | 296 kts | 347° |
| 2026-05-07 19:04 | 6.11342 | 116.31951 | 7942 ft | 294 kts | 338° |
| 2026-05-07 19:04 | 6.13053 | 116.30886 | 7565 ft | 293 kts | 319° |
| 2026-05-07 19:05 | 6.14369 | 116.29282 | 7046 ft | 295 kts | 299° |
| 2026-05-07 19:05 | 6.15196 | 116.27456 | 6473 ft | 289 kts | 293° |
| 2026-05-07 19:05 | 6.15985 | 116.25595 | 5717 ft | 290 kts | 293° |
| 2026-05-07 19:05 | 6.16757 | 116.23771 | 5372 ft | 275 kts | 293° |
| 2026-05-07 19:06 | 6.17473 | 116.22070 | 5223 ft | 253 kts | 293° |
| 2026-05-07 19:06 | 6.18753 | 116.19052 | 5005 ft | 219 kts | 293° |
| 2026-05-07 19:06 | 6.19193 | 116.17625 | 4901 ft | 212 kts | 270° |
| 2026-05-07 19:07 | 6.18787 | 116.16273 | 4824 ft | 199 kts | 233° |
| 2026-05-07 19:07 | 6.17702 | 116.15467 | 4532 ft | 195 kts | 202° |
| 2026-05-07 19:07 | 6.16467 | 116.14933 | 4286 ft | 192 kts | 204° |
| 2026-05-07 19:07 | 6.15270 | 116.14370 | 4051 ft | 187 kts | 205° |
| 2026-05-07 19:08 | 6.14113 | 116.13815 | 3842 ft | 181 kts | 205° |
| 2026-05-07 19:08 | 6.12997 | 116.13282 | 3617 ft | 175 kts | 205° |
| 2026-05-07 19:08 | 6.11922 | 116.12800 | 3434 ft | 163 kts | 203° |
| 2026-05-07 19:08 | 6.10914 | 116.12374 | 3242 ft | 153 kts | 203° |
| 2026-05-07 19:09 | 6.09940 | 116.11964 | 3074 ft | 151 kts | 202° |
| 2026-05-07 19:09 | 6.08976 | 116.11558 | 2905 ft | 150 kts | 202° |
| 2026-05-07 19:09 | 6.08019 | 116.11157 | 2765 ft | 149 kts | 202° |
| 2026-05-07 19:09 | 6.07062 | 116.10755 | 2607 ft | 149 kts | 202° |
| 2026-05-07 19:10 | 6.06107 | 116.10352 | 2421 ft | 149 kts | 202° |
| 2026-05-07 19:10 | 6.05153 | 116.09950 | 2228 ft | 148 kts | 202° |
| 2026-05-07 19:10 | 6.04201 | 116.09548 | 2031 ft | 148 kts | 202° |
| 2026-05-07 19:10 | 6.03252 | 116.09147 | 1837 ft | 148 kts | 202° |
| 2026-05-07 19:11 | 6.02306 | 116.08747 | 1641 ft | 147 kts | 202° |
| 2026-05-07 19:11 | 6.01366 | 116.08349 | 1446 ft | 146 kts | 202° |
| 2026-05-07 19:11 | 6.00429 | 116.07954 | 1255 ft | 146 kts | 202° |
| 2026-05-07 19:11 | 5.99493 | 116.07559 | 1062 ft | 146 kts | 202° |
| 2026-05-07 19:12 | 5.98561 | 116.07165 | 879 ft | 145 kts | 202° |
| 2026-05-07 19:12 | 5.97624 | 116.06779 | 661 ft | 145 kts | 202° |
| 2026-05-07 19:12 | 5.96701 | 116.06380 | 479 ft | 144 kts | 203° |
| 2026-05-07 19:12 | 5.95778 | 116.05989 | 306 ft | 144 kts | 202° |
| 2026-05-07 19:13 | 5.94861 | 116.05593 | 108 ft | 142 kts | 202° |
| 2026-05-07 19:13 | 5.93969 | 116.05215 | 31 ft | 129 kts | 204° |
| 2026-05-07 19:13 | 5.93365 | 116.04967 | 29 ft | 61 kts | 203° |
| 2026-05-07 19:13 | 5.93009 | 116.04816 | 29 ft | 50 kts | 203° |
| 2026-05-07 19:14 | 5.92743 | 116.04754 | 29 ft | 37 kts | 179° |
| 2026-05-07 19:14 | 5.92556 | 116.04774 | 29 ft | 24 kts | 174° |
| 2026-05-07 19:14 | 5.92442 | 116.04775 | 29 ft | 11 kts | 165° |
| 2026-05-07 19:14 | 5.92397 | 116.04825 | 29 ft | 9 kts | 104° |
| 2026-05-07 19:15 | 5.92416 | 116.04874 | 29 ft | 7 kts | 65° |
| 2026-05-07 19:15 | 5.92424 | 116.04916 | 29 ft | 6 kts | 85° |
| 2026-05-07 19:15 | 5.92426 | 116.04943 | 29 ft | 0 kts | 85° |